Airfield :
LOGIN :

Register | Disclaimer

   EN    FR    IT 

 










Legend :    VFR   Marginal VFR   IFR   Intensive IFR   Very Intensive IFR
Visi :
Ceiling :
>= 8 km
>= 3000ft
5 to 8 km
1000 to 3000 ft
1500m to 5 km
500 to 1000 ft
800 to 1500m
200 to 500 ft
< 800m
< 200 ft
Symbols :   Thunderstorms  Fog  Heavy snow  Heavy precipitations  Wind > 20 kt
SIGMETs :     Misc.  Thunderstorms  Icing  Turbulence  Mountain Waves  Volcanic Ashes






- Airport Elevation : 407 ft


EGDM - MoD Boscombe Down Amesbury

CURRENT METAR :
  • 231750Z AUTO 34004KT //// // SCT041/// BKN080/// 12/10 Q1008

EXPIRED METARs :
  • 231650Z 02005KT 8000 HZ BKN038 12/10 Q1008 RMK BLU
  • 231620Z 04006KT 8000 -RA BKN035 OVC045 12/10 Q1009 TEMPO 7000 -RA RMK BLU TEMPO WHT

TAF AMD TAF EGDM
Valid from the 23 at 15:00 until the 24 at 00:00 UTC


231511Z 2315/2324 08005KT 9999 FEW010 BKN040
TEMPO 2315/2318 SCT010
PROB30
TEMPO 2315/2318 7000 -RADZ



MET'MAP, your aeronautical weather chart ! - Copyright ORBIFLY December 2007 - Disclaimer

ORBIFLY MET'MAP TEAM :

Programming & Development : Alexandra Zaïnal
Concept & Development : Baudouin d'Aumeries
Co-Development & Prog : Marc-Olivier Méhu
Technical & hardware support : Manuel Goepfert

Contact : metmap@orbifly.com




SOURCES & CREDITS :

   NOAA